Tasman Sea — WDB5559 — position and weather

sailwx.info

Track history (hours):
 
Tides and Currents Weather Stations Pressure Air Temp Water Temp Dewpoint Dewpoint Depression Visibility Wind Speed Wind Dir Waves Ship Positions

Tasman Sea

Owner: Kirby Offshore Marine, LLC, Staten Island, NY. More information available from US FCC via Universal Licensing System and Coast Guard Vessel Documentation Center.

Last reported at 2014-Sep-26 19:18 UTC. Time now 2014-Oct-21 10:22 UTC.
Position N 40°42' W 073°58'.
Warning: this ship's position is 24 days out of date.

Length 38 m; draft 5 m.

Type: Tug. MMSI: 366910960.

Date/timePositionNaut miles runAvg speedWind from/ knotsBaromVisibWave heightAir tempDewpointWater temp
2014-Sep-26 19:18N 40°42' W 073°58'0 0.0
2014-Sep-26 18:33N 40°42' W 073°58'6 5.8
2014-Sep-26 17:33N 40°39' W 074°05'4 3.7
2014-Sep-26 16:32N 40°39' W 074°10'0 0.0
2014-Sep-26 15:33N 40°39' W 074°10'0 0.0
2014-Sep-26 14:33N 40°39' W 074°10'0 0.0
2014-Sep-26 13:33N 40°39' W 074°10'0 0.0
2014-Sep-26 12:33N 40°39' W 074°10'0 0.0
2014-Sep-26 11:33N 40°39' W 074°10'0 0.0
2014-Sep-26 08:17N 40°38' W 074°10'0 0.0
2014-Sep-26 07:06N 40°38' W 074°10'0 0.0
2014-Sep-26 06:32N 40°39' W 074°10'0 0.0
2014-Sep-26 00:21N 40°39' W 074°10'0 0.0
2014-Sep-25 23:14N 40°39' W 074°10'0 0.0
2014-Sep-25 21:33N 40°39' W 074°10'0 0.0
2014-Sep-25 20:18N 40°39' W 074°10'0 0.0
2014-Sep-25 19:31N 40°39' W 074°10'0 0.0
2014-Sep-25 18:32N 40°39' W 074°10'0 0.0
2014-Sep-25 17:33N 40°39' W 074°10'0 0.0
2014-Sep-25 16:24N 40°39' W 074°10'0 0.0
2014-Sep-25 15:33N 40°39' W 074°10'0 0.0
2014-Sep-25 14:33N 40°39' W 074°10'0 0.0
2014-Sep-25 13:05N 40°39' W 074°10'0 0.0
2014-Sep-25 12:33N 40°39' W 074°10'0 0.0
2014-Sep-25 11:33N 40°39' W 074°10'0 0.0
2014-Sep-25 10:33N 40°39' W 074°10'0 0.0
2014-Sep-25 09:33N 40°39' W 074°10'0 0.0
2014-Sep-25 08:33N 40°39' W 074°10'0 0.0
2014-Sep-25 07:33N 40°39' W 074°10'0 0.0
2014-Sep-25 06:33N 40°39' W 074°10'0 0.0
2014-Sep-25 05:33N 40°39' W 074°10'0 0.0
2014-Sep-25 04:33N 40°39' W 074°10'0 0.0
2014-Sep-25 03:33N 40°39' W 074°10'0 0.0
2014-Sep-25 02:33N 40°39' W 074°10'0 0.0
2014-Sep-25 01:33N 40°39' W 074°10'0 0.0
2014-Sep-25 00:33N 40°39' W 074°10'0 0.0
2014-Sep-24 23:33N 40°39' W 074°10'0 0.0
2014-Sep-24 22:33N 40°39' W 074°10'0 0.0
2014-Sep-24 21:33N 40°39' W 074°10'0 0.0
2014-Sep-24 20:33N 40°39' W 074°10'0 0.1
2014-Sep-24 19:33N 40°39' W 074°10'0 0.0
2014-Sep-24 18:33N 40°39' W 074°10'0 0.0
2014-Sep-24 17:33N 40°39' W 074°10'0 0.0
2014-Sep-24 16:33N 40°39' W 074°10'0 0.0
2014-Sep-24 15:33N 40°39' W 074°10'0 0.0
2014-Sep-24 14:33N 40°39' W 074°10'0 0.0
2014-Sep-24 13:33N 40°39' W 074°10'0 0.0
2014-Sep-24 12:33N 40°39' W 074°10'0 0.0
2014-Sep-24 11:33N 40°39' W 074°10'0 0.0
2014-Sep-24 10:31N 40°39' W 074°10'0 0.0
2014-Sep-24 09:30N 40°39' W 074°10'0 0.0
2014-Sep-24 00:04N 40°39' W 074°10'0 0.0
2014-Sep-23 23:33N 40°39' W 074°10'0 0.3
2014-Sep-23 22:27N 40°39' W 074°10'7 7.3
2014-Sep-23 21:32N 40°36' W 074°02'9 9.0
2014-Sep-23 20:33N 40°29' W 073°55'9 8.7
2014-Sep-23 19:33N 40°30' W 073°43'9 8.6
2014-Sep-23 18:32N 40°32' W 073°32'9 8.8
2014-Sep-23 17:32N 40°33' W 073°20'10 8.6
2014-Sep-23 16:24N 40°36' W 073°08'7 8.7
2014-Sep-23 15:33N 40°39' W 072°59'9 8.8
2014-Sep-23 14:33N 40°42' W 072°48'9 8.6
2014-Sep-23 13:33N 40°45' W 072°38'8 8.4
2014-Sep-23 12:33N 40°48' W 072°28'9 8.6
2014-Sep-23 11:33N 40°52' W 072°17'9 8.9
2014-Sep-23 10:33N 40°55' W 072°06'9 9.2
2014-Sep-23 09:33N 40°58' W 071°55'10 9.6
2014-Sep-23 08:33N 41°02' W 071°43'9 9.3
2014-Sep-23 07:33N 41°06' W 071°32'9 8.8
2014-Sep-23 06:33N 41°13' W 071°25'9 8.8
2014-Sep-23 05:33N 41°22' W 071°25'9 8.9
2014-Sep-23 04:33N 41°30' W 071°21'9 9.5
2014-Sep-23 03:33N 41°39' W 071°19'8 8.0
2014-Sep-23 02:33N 41°47' W 071°22'0 0.0
2014-Sep-23 01:24N 41°47' W 071°22'0 0.0
2014-Sep-23 00:10N 41°47' W 071°22'0 0.0
2014-Sep-22 23:33N 41°47' W 071°22'0 0.0
2014-Sep-22 22:29N 41°47' W 071°22'0 0.0
2014-Sep-22 21:33N 41°47' W 071°22'0 0.0
2014-Sep-22 19:30N 41°47' W 071°22'0 0.0
2014-Sep-22 18:33N 41°47' W 071°22'0 0.0
2014-Sep-22 17:13N 41°47' W 071°22'0 0.2
2014-Sep-22 16:31N 41°47' W 071°22'8 7.0
2014-Sep-22 15:19N 41°39' W 071°19'6 7.5
2014-Sep-22 14:31N 41°33' W 071°19'8 7.1
2014-Sep-22 13:26N 41°26' W 071°22'11 8.1
2014-Sep-22 12:09N 41°25' W 071°08'5 7.8
2014-Sep-22 11:33N 41°26' W 071°02'8 7.7
2014-Sep-22 10:33N 41°30' W 070°53'8 7.9
2014-Sep-22 09:32N 41°34' W 070°44'8 7.8
2014-Sep-22 08:32N 41°42' W 070°40'18 6.2
2014-Sep-22 05:33N 41°59' W 070°31'8 8.6
2014-Sep-22 04:33N 42°07' W 070°34'9 8.6
2014-Sep-22 03:33N 42°14' W 070°40'9 8.7
2014-Sep-22 02:33N 42°21' W 070°47'7 7.0
2014-Sep-22 01:33N 42°21' W 070°56'5 0.4
2014-Sep-21 11:13N 42°22' W 071°03'1 1.1
2014-Sep-21 10:24N 42°22' W 071°02'0 0.0
2014-Sep-21 03:19N 42°22' W 071°02'2 2.4
2014-Sep-21 02:25N 42°24' W 071°01'0 0.4
2014-Sep-21 01:33N 42°24' W 071°01'0 0.0
2014-Sep-21 00:32N 42°24' W 071°01'0 0.0
2014-Sep-20 23:32N 42°24' W 071°01'0 0.0
2014-Sep-20 22:30N 42°24' W 071°01'0 0.0
2014-Sep-20 21:20N 42°24' W 071°01'18 2.2
2014-Sep-20 13:10N 42°32' W 070°39'61 7.0
2014-Sep-20 04:20N 43°29' W 070°08'11 1.3
2014-Sep-19 20:06N 43°39' W 070°16'2 2.4
2014-Sep-19 19:16N 43°40' W 070°14'0 0.1
2014-Sep-19 18:30N 43°40' W 070°14'0 0.0
2014-Sep-19 17:33N 43°40' W 070°14'0 0.0
2014-Sep-19 16:32N 43°40' W 070°14'0 0.0
2014-Sep-19 15:33N 43°40' W 070°14'0 0.1
2014-Sep-19 14:29N 43°40' W 070°14'0 0.1
2014-Sep-19 13:20N 43°40' W 070°14'0 0.0
2014-Sep-19 11:19N 43°40' W 070°14'0 0.2
2014-Sep-19 10:33N 43°40' W 070°14'0 0.1
2014-Sep-19 09:30N 43°40' W 070°14'0 0.1
2014-Sep-19 08:33N 43°40' W 070°14'0 0.0
2014-Sep-19 07:32N 43°40' W 070°14'0 0.0
2014-Sep-19 06:29N 43°40' W 070°14'0 0.0
2014-Sep-19 05:33N 43°40' W 070°14'0 0.0
2014-Sep-19 04:33N 43°40' W 070°14'0 0.0
2014-Sep-19 03:32N 43°40' W 070°14'1 0.1
2014-Sep-18 20:33N 43°39' W 070°13'8 7.2
2014-Sep-18 19:26N 43°32' W 070°07'114 6.7
2014-Sep-18 02:33N 41°41' W 070°41'18 2.2
2014-Sep-17 18:25N 41°28' W 070°57'6 7.3
2014-Sep-17 17:33N 41°24' W 071°03'7 7.1
2014-Sep-17 16:31N 41°18' W 071°09'7 7.1
2014-Sep-17 15:33N 41°13' W 071°15'7 6.7
2014-Sep-17 14:33N 41°09' W 071°22'7 6.7
2014-Sep-17 13:33N 41°06' W 071°30'7 6.8
2014-Sep-17 12:33N 41°04' W 071°38'7 6.8
2014-Sep-17 11:33N 41°01' W 071°47'7 6.5
2014-Sep-17 10:33N 40°59' W 071°55'7 6.9
2014-Sep-17 09:33N 40°56' W 072°03'7 6.9
2014-Sep-17 08:33N 40°54' W 072°11'7 7.1
2014-Sep-17 07:33N 40°51' W 072°20'7 7.1
2014-Sep-17 06:33N 40°48' W 072°29'7 7.1
2014-Sep-17 05:33N 40°45' W 072°37'7 7.1
2014-Sep-17 04:33N 40°43' W 072°46'  
Track history (hours):
 
Tides and Currents Weather Stations Pressure Air Temp Water Temp Dewpoint Dewpoint Depression Visibility Wind Speed Wind Dir Waves Ship Positions

Tasman Sea

Owner: Kirby Offshore Marine, LLC, Staten Island, NY. More information available from US FCC via Universal Licensing System and Coast Guard Vessel Documentation Center.

Last reported at 2014-Sep-26 19:18 UTC. Time now 2014-Oct-21 10:22 UTC.
Position N 40°42' W 073°58'.
Warning: this ship's position is 24 days out of date.

Length 38 m; draft 5 m.

Type: Tug. MMSI: 366910960.

Date/timePositionNaut miles runAvg speedWind from/ knotsBaromVisibWave heightAir tempDewpointWater temp
2014-Sep-26 19:18N 40°42' W 073°58'0 0.0
2014-Sep-26 18:33N 40°42' W 073°58'6 5.8
2014-Sep-26 17:33N 40°39' W 074°05'4 3.7
2014-Sep-26 16:32N 40°39' W 074°10'0 0.0
2014-Sep-26 15:33N 40°39' W 074°10'0 0.0
2014-Sep-26 14:33N 40°39' W 074°10'0 0.0
2014-Sep-26 13:33N 40°39' W 074°10'0 0.0
2014-Sep-26 12:33N 40°39' W 074°10'0 0.0
2014-Sep-26 11:33N 40°39' W 074°10'0 0.0
2014-Sep-26 08:17N 40°38' W 074°10'0 0.0
2014-Sep-26 07:06N 40°38' W 074°10'0 0.0
2014-Sep-26 06:32N 40°39' W 074°10'0 0.0
2014-Sep-26 00:21N 40°39' W 074°10'0 0.0
2014-Sep-25 23:14N 40°39' W 074°10'0 0.0
2014-Sep-25 21:33N 40°39' W 074°10'0 0.0
2014-Sep-25 20:18N 40°39' W 074°10'0 0.0
2014-Sep-25 19:31N 40°39' W 074°10'0 0.0
2014-Sep-25 18:32N 40°39' W 074°10'0 0.0
2014-Sep-25 17:33N 40°39' W 074°10'0 0.0
2014-Sep-25 16:24N 40°39' W 074°10'0 0.0
2014-Sep-25 15:33N 40°39' W 074°10'0 0.0
2014-Sep-25 14:33N 40°39' W 074°10'0 0.0
2014-Sep-25 13:05N 40°39' W 074°10'0 0.0
2014-Sep-25 12:33N 40°39' W 074°10'0 0.0
2014-Sep-25 11:33N 40°39' W 074°10'0 0.0
2014-Sep-25 10:33N 40°39' W 074°10'0 0.0
2014-Sep-25 09:33N 40°39' W 074°10'0 0.0
2014-Sep-25 08:33N 40°39' W 074°10'0 0.0
2014-Sep-25 07:33N 40°39' W 074°10'0 0.0
2014-Sep-25 06:33N 40°39' W 074°10'0 0.0
2014-Sep-25 05:33N 40°39' W 074°10'0 0.0
2014-Sep-25 04:33N 40°39' W 074°10'0 0.0
2014-Sep-25 03:33N 40°39' W 074°10'0 0.0
2014-Sep-25 02:33N 40°39' W 074°10'0 0.0
2014-Sep-25 01:33N 40°39' W 074°10'0 0.0
2014-Sep-25 00:33N 40°39' W 074°10'0 0.0
2014-Sep-24 23:33N 40°39' W 074°10'0 0.0
2014-Sep-24 22:33N 40°39' W 074°10'0 0.0
2014-Sep-24 21:33N 40°39' W 074°10'0 0.0
2014-Sep-24 20:33N 40°39' W 074°10'0 0.1
2014-Sep-24 19:33N 40°39' W 074°10'0 0.0
2014-Sep-24 18:33N 40°39' W 074°10'0 0.0
2014-Sep-24 17:33N 40°39' W 074°10'0 0.0
2014-Sep-24 16:33N 40°39' W 074°10'0 0.0
2014-Sep-24 15:33N 40°39' W 074°10'0 0.0
2014-Sep-24 14:33N 40°39' W 074°10'0 0.0
2014-Sep-24 13:33N 40°39' W 074°10'0 0.0
2014-Sep-24 12:33N 40°39' W 074°10'0 0.0
2014-Sep-24 11:33N 40°39' W 074°10'0 0.0
2014-Sep-24 10:31N 40°39' W 074°10'0 0.0
2014-Sep-24 09:30N 40°39' W 074°10'0 0.0
2014-Sep-24 00:04N 40°39' W 074°10'0 0.0
2014-Sep-23 23:33N 40°39' W 074°10'0 0.3
2014-Sep-23 22:27N 40°39' W 074°10'7 7.3
2014-Sep-23 21:32N 40°36' W 074°02'9 9.0
2014-Sep-23 20:33N 40°29' W 073°55'9 8.7
2014-Sep-23 19:33N 40°30' W 073°43'9 8.6
2014-Sep-23 18:32N 40°32' W 073°32'9 8.8
2014-Sep-23 17:32N 40°33' W 073°20'10 8.6
2014-Sep-23 16:24N 40°36' W 073°08'7 8.7
2014-Sep-23 15:33N 40°39' W 072°59'9 8.8
2014-Sep-23 14:33N 40°42' W 072°48'9 8.6
2014-Sep-23 13:33N 40°45' W 072°38'8 8.4
2014-Sep-23 12:33N 40°48' W 072°28'9 8.6
2014-Sep-23 11:33N 40°52' W 072°17'9 8.9
2014-Sep-23 10:33N 40°55' W 072°06'9 9.2
2014-Sep-23 09:33N 40°58' W 071°55'10 9.6
2014-Sep-23 08:33N 41°02' W 071°43'9 9.3
2014-Sep-23 07:33N 41°06' W 071°32'9 8.8
2014-Sep-23 06:33N 41°13' W 071°25'9 8.8
2014-Sep-23 05:33N 41°22' W 071°25'9 8.9
2014-Sep-23 04:33N 41°30' W 071°21'9 9.5
2014-Sep-23 03:33N 41°39' W 071°19'8 8.0
2014-Sep-23 02:33N 41°47' W 071°22'0 0.0
2014-Sep-23 01:24N 41°47' W 071°22'0 0.0
2014-Sep-23 00:10N 41°47' W 071°22'0 0.0
2014-Sep-22 23:33N 41°47' W 071°22'0 0.0
2014-Sep-22 22:29N 41°47' W 071°22'0 0.0
2014-Sep-22 21:33N 41°47' W 071°22'0 0.0
2014-Sep-22 19:30N 41°47' W 071°22'0 0.0
2014-Sep-22 18:33N 41°47' W 071°22'0 0.0
2014-Sep-22 17:13N 41°47' W 071°22'0 0.2
2014-Sep-22 16:31N 41°47' W 071°22'8 7.0
2014-Sep-22 15:19N 41°39' W 071°19'6 7.5
2014-Sep-22 14:31N 41°33' W 071°19'8 7.1
2014-Sep-22 13:26N 41°26' W 071°22'11 8.1
2014-Sep-22 12:09N 41°25' W 071°08'5 7.8
2014-Sep-22 11:33N 41°26' W 071°02'8 7.7
2014-Sep-22 10:33N 41°30' W 070°53'8 7.9
2014-Sep-22 09:32N 41°34' W 070°44'8 7.8
2014-Sep-22 08:32N 41°42' W 070°40'18 6.2
2014-Sep-22 05:33N 41°59' W 070°31'8 8.6
2014-Sep-22 04:33N 42°07' W 070°34'9 8.6
2014-Sep-22 03:33N 42°14' W 070°40'9 8.7
2014-Sep-22 02:33N 42°21' W 070°47'7 7.0
2014-Sep-22 01:33N 42°21' W 070°56'5 0.4
2014-Sep-21 11:13N 42°22' W 071°03'1 1.1
2014-Sep-21 10:24N 42°22' W 071°02'0 0.0
2014-Sep-21 03:19N 42°22' W 071°02'2 2.4
2014-Sep-21 02:25N 42°24' W 071°01'0 0.4
2014-Sep-21 01:33N 42°24' W 071°01'0 0.0
2014-Sep-21 00:32N 42°24' W 071°01'0 0.0
2014-Sep-20 23:32N 42°24' W 071°01'0 0.0
2014-Sep-20 22:30N 42°24' W 071°01'0 0.0
2014-Sep-20 21:20N 42°24' W 071°01'18 2.2
2014-Sep-20 13:10N 42°32' W 070°39'61 7.0
2014-Sep-20 04:20N 43°29' W 070°08'11 1.3
2014-Sep-19 20:06N 43°39' W 070°16'2 2.4
2014-Sep-19 19:16N 43°40' W 070°14'0 0.1
2014-Sep-19 18:30N 43°40' W 070°14'0 0.0
2014-Sep-19 17:33N 43°40' W 070°14'0 0.0
2014-Sep-19 16:32N 43°40' W 070°14'0 0.0
2014-Sep-19 15:33N 43°40' W 070°14'0 0.1
2014-Sep-19 14:29N 43°40' W 070°14'0 0.1
2014-Sep-19 13:20N 43°40' W 070°14'0 0.0
2014-Sep-19 11:19N 43°40' W 070°14'0 0.2
2014-Sep-19 10:33N 43°40' W 070°14'0 0.1
2014-Sep-19 09:30N 43°40' W 070°14'0 0.1
2014-Sep-19 08:33N 43°40' W 070°14'0 0.0
2014-Sep-19 07:32N 43°40' W 070°14'0 0.0
2014-Sep-19 06:29N 43°40' W 070°14'0 0.0
2014-Sep-19 05:33N 43°40' W 070°14'0 0.0
2014-Sep-19 04:33N 43°40' W 070°14'0 0.0
2014-Sep-19 03:32N 43°40' W 070°14'1 0.1
2014-Sep-18 20:33N 43°39' W 070°13'8 7.2
2014-Sep-18 19:26N 43°32' W 070°07'114 6.7
2014-Sep-18 02:33N 41°41' W 070°41'18 2.2
2014-Sep-17 18:25N 41°28' W 070°57'6 7.3
2014-Sep-17 17:33N 41°24' W 071°03'7 7.1
2014-Sep-17 16:31N 41°18' W 071°09'7 7.1
2014-Sep-17 15:33N 41°13' W 071°15'7 6.7
2014-Sep-17 14:33N 41°09' W 071°22'7 6.7
2014-Sep-17 13:33N 41°06' W 071°30'7 6.8
2014-Sep-17 12:33N 41°04' W 071°38'7 6.8
2014-Sep-17 11:33N 41°01' W 071°47'7 6.5
2014-Sep-17 10:33N 40°59' W 071°55'7 6.9
2014-Sep-17 09:33N 40°56' W 072°03'7 6.9
2014-Sep-17 08:33N 40°54' W 072°11'7 7.1
2014-Sep-17 07:33N 40°51' W 072°20'7 7.1
2014-Sep-17 06:33N 40°48' W 072°29'7 7.1
2014-Sep-17 05:33N 40°45' W 072°37'7 7.1
2014-Sep-17 04:33N 40°43' W 072°46'  

Dump ship's entire track history